PWSweather.com
Personal Weather Stations
Station Observations
UISISLE1
Newport, Isle ofWight, ISLE OF WIGHT PO30 2JX

NewportIsle ofWight, ISLE OF WIGHT PO30 2JX

Lat: 50.72, Lon: -1.27

Elevation: 45

Station Type: Davis Vantage Pro Plus

http://www.isleofwightweather.co.uk

Latest ConditionsUpdated 8:30:07 PM GMT Sunday, Jan 21, 2018
Currently Today's Max Today's Min Today's Average
Temperature 51.0°F10.6°C 51.1°F10.6°C 37.6°F3.1°C 42.9°F6.1°C
Dew Point 50.5°F10.3°C 50.6°F10.3°C 35.5°F1.9°C 41.5°F5.3°C
Winds 8.0 mph WSW12.9 kmh WSW 11.9 mph W19.2 kmh W - 3.5 mph 5.6 kmh
Wind Gusts 10.3 mph16.6 kmh 22.0 mph35.4 kmh - -
Humidity 98% 98% 92% 95%
Pressure 29.78 in1008.5 mb 30.00 in1015.9 mb 29.78 in1008.5 mb -
Precipitation - 0.32 in8.1 mm - -
Hour Temp Dew Point Humidity Winds Wind Gusts Pressure Precip Precip Rate Daily Precip Total
08:30 PM 51.0°F10.6°C 50.5°F10.3°C 98% 8.0 mph WSW12.9 kmh WSW 10.3 mph16.6 kmh 29.78 in1008.5 mb - 0.00 in0.0 mm 0.32 in8.1 mm
08:15 PM 51.1°F10.6°C 50.6°F10.3°C 98% 9.6 mph WNW15.4 kmh WNW 14.0 mph22.5 kmh 29.78 in1008.5 mb - 0.00 in0.0 mm 0.32 in8.1 mm
08:00 PM 50.9°F10.5°C 50.1°F10.1°C 97% 9.4 mph W15.1 kmh W 14.4 mph23.2 kmh 29.78 in1008.5 mb - 0.00 in0.0 mm 0.32 in8.1 mm
07:45 PM 50.6°F10.3°C 50.1°F10.1°C 98% 9.7 mph WSW15.6 kmh WSW 13.0 mph20.9 kmh 29.79 in1008.8 mb - 0.00 in0.0 mm 0.32 in8.1 mm
07:30 PM 50.5°F10.3°C 49.7°F9.8°C 97% 7.8 mph W12.6 kmh W 10.0 mph16.1 kmh 29.78 in1008.5 mb - 0.00 in0.0 mm 0.32 in8.1 mm
07:15 PM 50.5°F10.3°C 49.7°F9.8°C 97% 10.4 mph WSW16.7 kmh WSW 16.5 mph26.6 kmh 29.78 in1008.5 mb - 0.00 in0.0 mm 0.32 in8.1 mm
07:00 PM 50.5°F10.3°C 49.7°F9.8°C 97% 10.9 mph W17.5 kmh W 18.5 mph29.8 kmh 29.78 in1008.5 mb - 0.00 in0.0 mm 0.32 in8.1 mm
06:45 PM 50.4°F10.2°C 49.6°F9.8°C 97% 9.3 mph WSW15.0 kmh WSW 14.4 mph23.2 kmh 29.78 in1008.5 mb - 0.01 in0.3 mm 0.32 in8.1 mm
06:30 PM 50.4°F10.2°C 49.6°F9.8°C 97% 11.9 mph W19.2 kmh W 15.5 mph24.9 kmh 29.78 in1008.5 mb - 0.02 in0.5 mm 0.32 in8.1 mm
06:15 PM 50.5°F10.3°C 49.7°F9.8°C 97% 10.4 mph WSW16.7 kmh WSW 22.0 mph35.4 kmh 29.79 in1008.8 mb - 0.00 in0.0 mm 0.30 in7.6 mm
06:00 PM 50.5°F10.3°C 49.7°F9.8°C 97% 9.7 mph WSW15.6 kmh WSW 13.4 mph21.6 kmh 29.79 in1008.8 mb - 0.00 in0.0 mm 0.30 in7.6 mm
05:45 PM 50.5°F10.3°C 49.7°F9.8°C 97% 11.2 mph WSW18.0 kmh WSW 16.5 mph26.6 kmh 29.79 in1008.8 mb - 0.00 in0.0 mm 0.30 in7.6 mm
05:30 PM 50.4°F10.2°C 49.6°F9.8°C 97% 10.8 mph WSW17.4 kmh WSW 15.5 mph24.9 kmh 29.79 in1008.8 mb - 0.00 in0.0 mm 0.30 in7.6 mm
05:15 PM 50.4°F10.2°C 49.6°F9.8°C 97% 10.9 mph WSW17.5 kmh WSW 15.0 mph24.1 kmh 29.79 in1008.8 mb - 0.01 in0.3 mm 0.30 in7.6 mm
05:00 PM 50.4°F10.2°C 49.5°F9.7°C 97% 7.8 mph WNW12.6 kmh WNW 12.0 mph19.3 kmh 29.80 in1009.1 mb - 0.01 in0.3 mm 0.29 in7.4 mm
04:45 PM 50.3°F10.2°C 49.5°F9.7°C 97% 9.6 mph WSW15.4 kmh WSW 15.5 mph24.9 kmh 29.81 in1009.5 mb - 0.00 in0.0 mm 0.28 in7.1 mm
04:30 PM 50.2°F10.1°C 49.4°F9.7°C 97% 9.1 mph W14.6 kmh W 14.0 mph22.5 kmh 29.81 in1009.5 mb - 0.00 in0.0 mm 0.28 in7.1 mm
04:15 PM 50.3°F10.2°C 49.5°F9.7°C 97% 8.2 mph W13.2 kmh W 14.0 mph22.5 kmh 29.81 in1009.5 mb - 0.00 in0.0 mm 0.28 in7.1 mm
04:00 PM 50.3°F10.2°C 49.5°F9.7°C 97% 7.5 mph WSW12.1 kmh WSW 14.4 mph23.2 kmh 29.81 in1009.5 mb - 0.00 in0.0 mm 0.28 in7.1 mm
03:45 PM 50.1°F10.1°C 49.3°F9.6°C 97% 6.9 mph WSW11.1 kmh WSW 11.0 mph17.7 kmh 29.81 in1009.5 mb - 0.00 in0.0 mm 0.28 in7.1 mm
03:30 PM 49.5°F9.7°C 48.7°F9.3°C 97% 7.0 mph WSW11.3 kmh WSW 13.0 mph20.9 kmh 29.81 in1009.5 mb - 0.00 in0.0 mm 0.28 in7.1 mm
03:15 PM 47.3°F8.5°C 46.5°F8.1°C 97% 6.1 mph WSW9.8 kmh WSW 10.0 mph16.1 kmh 29.82 in1009.8 mb - 0.01 in0.3 mm 0.28 in7.1 mm
03:00 PM 46.5°F8.1°C 45.7°F7.6°C 97% Calm Calm -- 29.83 in1010.2 mb - 0.01 in0.3 mm 0.28 in7.1 mm
02:45 PM 46.3°F7.9°C 45.2°F7.3°C 96% Calm Calm -- 29.83 in1010.2 mb - 0.02 in0.5 mm 0.27 in6.9 mm
02:30 PM 46.2°F7.9°C 45.1°F7.3°C 96% Calm Calm -- 29.84 in1010.5 mb - 0.02 in0.5 mm 0.25 in6.4 mm
02:15 PM 46.1°F7.8°C 45.3°F7.4°C 97% 1.1 mph E1.8 kmh E 2.0 mph3.2 kmh 29.84 in1010.5 mb - 0.01 in0.3 mm 0.24 in6.1 mm
02:00 PM 45.8°F7.7°C 44.7°F7.1°C 96% Calm Calm -- 29.85 in1010.8 mb - 0.01 in0.3 mm 0.23 in5.8 mm
01:45 PM 45.7°F7.6°C 44.6°F7.0°C 96% 0.6 mph ESE1.0 kmh ESE 3.0 mph4.8 kmh 29.85 in1010.8 mb - 0.00 in0.0 mm 0.22 in5.6 mm
01:30 PM 45.5°F7.5°C 44.4°F6.9°C 96% 0.1 mph E0.2 kmh E -- 29.86 in1011.2 mb - 0.01 in0.3 mm 0.22 in5.6 mm
01:15 PM 45.2°F7.3°C 44.1°F6.7°C 96% 0.8 mph ESE1.3 kmh ESE 2.0 mph3.2 kmh 29.86 in1011.2 mb - 0.00 in0.0 mm 0.21 in5.3 mm
01:00 PM 45.0°F7.2°C 43.9°F6.6°C 96% 4.6 mph ESE7.4 kmh ESE 7.0 mph11.3 kmh 29.87 in1011.5 mb - 0.00 in0.0 mm 0.21 in5.3 mm
12:45 PM 44.7°F7.1°C 43.6°F6.4°C 96% 5.6 mph SE9.0 kmh SE 9.0 mph14.5 kmh 29.87 in1011.5 mb - 0.00 in0.0 mm 0.21 in5.3 mm
12:30 PM 44.3°F6.8°C 43.2°F6.2°C 96% 1.2 mph ESE1.9 kmh ESE 5.0 mph8.0 kmh 29.88 in1011.9 mb - 0.01 in0.3 mm 0.21 in5.3 mm
12:15 PM 44.0°F6.7°C 42.9°F6.1°C 96% Calm Calm 1.0 mph1.6 kmh 29.90 in1012.5 mb - 0.00 in0.0 mm 0.21 in5.3 mm
12:00 PM 43.8°F6.6°C 42.7°F5.9°C 96% 4.0 mph SW6.4 kmh SW 6.0 mph9.7 kmh 29.91 in1012.9 mb - 0.01 in0.3 mm 0.21 in5.3 mm
11:45 AM 43.6°F6.4°C 42.5°F5.8°C 96% 3.3 mph S5.3 kmh S 7.0 mph11.3 kmh 29.91 in1012.9 mb - 0.01 in0.3 mm 0.20 in5.1 mm
11:30 AM 43.4°F6.3°C 42.3°F5.7°C 96% 0.4 mph SE0.6 kmh SE 6.0 mph9.7 kmh 29.92 in1013.2 mb - 0.01 in0.3 mm 0.19 in4.8 mm
11:15 AM 43.1°F6.2°C 42.1°F5.6°C 96% 3.6 mph SE5.8 kmh SE 8.0 mph12.9 kmh 29.92 in1013.2 mb - 0.02 in0.5 mm 0.19 in4.8 mm
11:00 AM 42.7°F5.9°C 41.6°F5.3°C 96% 3.4 mph SE5.5 kmh SE 10.0 mph16.1 kmh 29.93 in1013.5 mb - 0.02 in0.5 mm 0.17 in4.3 mm
10:45 AM 42.4°F5.8°C 41.3°F5.2°C 96% 6.0 mph ESE9.7 kmh ESE 9.0 mph14.5 kmh 29.94 in1013.9 mb - 0.01 in0.3 mm 0.16 in4.1 mm
10:30 AM 41.9°F5.5°C 40.6°F4.8°C 95% 4.9 mph E7.9 kmh E 7.0 mph11.3 kmh 29.95 in1014.2 mb - 0.02 in0.5 mm 0.15 in3.8 mm
10:15 AM 41.5°F5.3°C 40.2°F4.6°C 95% 5.0 mph ESE8.0 kmh ESE 9.0 mph14.5 kmh 29.96 in1014.6 mb - 0.02 in0.5 mm 0.13 in3.3 mm
10:00 AM 41.3°F5.2°C 40.0°F4.4°C 95% 4.7 mph ESE7.6 kmh ESE 7.0 mph11.3 kmh 29.97 in1014.9 mb - 0.03 in0.8 mm 0.11 in2.8 mm
09:45 AM 40.9°F4.9°C 39.6°F4.2°C 95% 5.9 mph ESE9.5 kmh ESE 8.0 mph12.9 kmh 29.96 in1014.6 mb - 0.02 in0.5 mm 0.08 in2.0 mm
09:30 AM 40.3°F4.6°C 39.0°F3.9°C 95% 2.9 mph SE4.7 kmh SE 7.0 mph11.3 kmh 29.97 in1014.9 mb - 0.02 in0.5 mm 0.06 in1.5 mm
09:15 AM 39.7°F4.3°C 38.4°F3.6°C 95% 1.7 mph SE2.7 kmh SE 3.0 mph4.8 kmh 29.98 in1015.2 mb - 0.01 in0.3 mm 0.05 in1.3 mm
09:00 AM 39.2°F4.0°C 37.7°F3.2°C 94% 2.9 mph E4.7 kmh E 7.0 mph11.3 kmh 29.98 in1015.2 mb - 0.01 in0.3 mm 0.04 in1.0 mm
08:45 AM 38.8°F3.8°C 37.2°F2.9°C 94% 1.5 mph E2.4 kmh E 2.0 mph3.2 kmh 29.98 in1015.2 mb - 0.00 in0.0 mm 0.03 in0.8 mm
08:30 AM 38.5°F3.6°C 36.9°F2.7°C 94% 2.6 mph E4.2 kmh E 5.0 mph8.0 kmh 29.99 in1015.6 mb - 0.02 in0.5 mm 0.03 in0.8 mm
08:15 AM 38.2°F3.4°C 36.6°F2.6°C 94% 0.7 mph E1.1 kmh E 3.0 mph4.8 kmh 29.99 in1015.6 mb - 0.01 in0.3 mm 0.02 in0.5 mm
08:00 AM 38.0°F3.3°C 36.4°F2.4°C 94% 2.2 mph E3.5 kmh E 5.0 mph8.0 kmh 30.00 in1015.9 mb - 0.01 in0.3 mm 0.01 in0.3 mm
07:45 AM 37.8°F3.2°C 36.0°F2.2°C 93% 0.4 mph E0.6 kmh E 2.0 mph3.2 kmh 29.99 in1015.6 mb - 0.00 in0.0 mm 0.00 in0.0 mm
07:30 AM 37.7°F3.2°C 35.9°F2.2°C 93% Calm Calm -- 29.98 in1015.2 mb - 0.00 in0.0 mm 0.00 in0.0 mm
07:15 AM 37.6°F3.1°C 35.8°F2.1°C 93% Calm Calm -- 29.99 in1015.6 mb - 0.00 in0.0 mm 0.00 in0.0 mm
07:00 AM 37.6°F3.1°C 35.8°F2.1°C 93% Calm Calm -- 29.98 in1015.2 mb - 0.00 in0.0 mm 0.00 in0.0 mm
06:45 AM 37.6°F3.1°C 35.8°F2.1°C 93% Calm Calm -- 29.98 in1015.2 mb - 0.00 in0.0 mm 0.00 in0.0 mm
06:30 AM 37.6°F3.1°C 35.8°F2.1°C 93% Calm Calm -- 29.99 in1015.6 mb - 0.00 in0.0 mm 0.00 in0.0 mm
06:15 AM 37.7°F3.2°C 35.9°F2.2°C 93% Calm Calm -- 30.00 in1015.9 mb - 0.00 in0.0 mm 0.00 in0.0 mm
06:00 AM 37.7°F3.2°C 35.9°F2.2°C 93% 0.3 mph ESE0.5 kmh ESE 1.0 mph1.6 kmh 29.98 in1015.2 mb - 0.00 in0.0 mm 0.00 in0.0 mm
05:45 AM 37.7°F3.2°C 35.5°F1.9°C 92% 0.2 mph E0.3 kmh E 3.0 mph4.8 kmh 30.00 in1015.9 mb - 0.00 in0.0 mm 0.00 in0.0 mm
05:30 AM 37.6°F3.1°C 35.5°F1.9°C 92% Calm Calm -- 30.00 in1015.9 mb - 0.00 in0.0 mm 0.00 in0.0 mm
05:15 AM 37.7°F3.2°C 35.6°F2.0°C 92% Calm Calm -- 30.00 in1015.9 mb - 0.00 in0.0 mm 0.00 in0.0 mm
05:00 AM 37.7°F3.2°C 35.6°F2.0°C 92% Calm Calm -- 30.00 in1015.9 mb - 0.00 in0.0 mm 0.00 in0.0 mm
04:45 AM 37.7°F3.2°C 35.6°F2.0°C 92% Calm Calm -- 29.99 in1015.6 mb - 0.00 in0.0 mm 0.00 in0.0 mm
04:30 AM 37.7°F3.2°C 35.6°F2.0°C 92% Calm Calm -- 29.98 in1015.2 mb - 0.00 in0.0 mm 0.00 in0.0 mm
04:15 AM 37.7°F3.2°C 35.6°F2.0°C 92% Calm Calm -- 30.00 in1015.9 mb - 0.00 in0.0 mm 0.00 in0.0 mm
04:00 AM 37.8°F3.2°C 35.7°F2.1°C 92% Calm Calm -- 29.99 in1015.6 mb - 0.00 in0.0 mm 0.00 in0.0 mm
03:45 AM 37.9°F3.3°C 35.8°F2.1°C 92% Calm Calm -- 29.98 in1015.2 mb - 0.00 in0.0 mm 0.00 in0.0 mm
03:30 AM 38.0°F3.3°C 35.9°F2.2°C 92% Calm Calm -- 29.99 in1015.6 mb - 0.00 in0.0 mm 0.00 in0.0 mm
03:15 AM 38.0°F3.3°C 35.9°F2.2°C 92% Calm Calm -- 29.98 in1015.2 mb - 0.00 in0.0 mm 0.00 in0.0 mm
03:00 AM 38.1°F3.4°C 36.0°F2.2°C 92% Calm Calm -- 29.98 in1015.2 mb - 0.00 in0.0 mm 0.00 in0.0 mm
02:45 AM 38.1°F3.4°C 35.9°F2.2°C 92% Calm Calm -- 29.97 in1014.9 mb - 0.00 in0.0 mm 0.00 in0.0 mm
02:30 AM 38.0°F3.3°C 35.9°F2.2°C 92% Calm Calm -- 29.98 in1015.2 mb - 0.00 in0.0 mm 0.00 in0.0 mm
02:15 AM 38.1°F3.4°C 36.0°F2.2°C 92% Calm Calm -- 29.97 in1014.9 mb - 0.00 in0.0 mm 0.00 in0.0 mm
02:00 AM 38.0°F3.3°C 35.9°F2.2°C 92% 1.2 mph NE1.9 kmh NE 2.1 mph3.4 kmh 29.96 in1014.6 mb - 0.00 in0.0 mm 0.00 in0.0 mm
01:45 AM 38.1°F3.4°C 36.0°F2.2°C 92% 1.5 mph NNE2.4 kmh NNE 5.1 mph8.2 kmh 29.96 in1014.6 mb - 0.00 in0.0 mm 0.00 in0.0 mm
01:30 AM 38.1°F3.4°C 36.0°F2.2°C 92% 0.6 mph N1.0 kmh N 2.1 mph3.4 kmh 29.96 in1014.6 mb - 0.00 in0.0 mm 0.00 in0.0 mm
01:15 AM 38.1°F3.4°C 35.9°F2.2°C 92% 3.0 mph NNW4.8 kmh NNW 4.1 mph6.6 kmh 29.96 in1014.6 mb - 0.00 in0.0 mm 0.00 in0.0 mm
01:00 AM 38.0°F3.3°C 36.2°F2.3°C 93% 0.7 mph N1.1 kmh N 4.1 mph6.6 kmh 29.95 in1014.2 mb - 0.00 in0.0 mm 0.00 in0.0 mm
12:45 AM 37.9°F3.3°C 35.8°F2.1°C 92% 2.4 mph N3.9 kmh N 4.1 mph6.6 kmh 29.95 in1014.2 mb - 0.00 in0.0 mm 0.00 in0.0 mm
12:30 AM 38.0°F3.3°C 36.2°F2.3°C 93% 3.6 mph NNW5.8 kmh NNW 3.1 mph5.0 kmh 29.94 in1013.9 mb - 0.00 in0.0 mm 0.00 in0.0 mm
12:15 AM 38.2°F3.4°C 36.4°F2.4°C 93% 2.0 mph NNE3.2 kmh NNE 4.1 mph6.6 kmh 29.93 in1013.5 mb - 0.00 in0.0 mm 0.00 in0.0 mm
12:00 AM 38.4°F3.6°C 36.6°F2.6°C 93% 4.1 mph N6.6 kmh N 5.1 mph8.2 kmh 29.92 in1013.2 mb - 0.00 in0.0 mm 0.00 in0.0 mm